createdAt,value
2017-07-05T00:00:47.721Z,94.00
2017-07-05T00:03:16.362Z,93.70
2017-07-05T00:05:45.710Z,93.90
2017-07-05T00:08:22.360Z,93.90
2017-07-05T00:10:50.119Z,93.70
2017-07-05T00:13:26.229Z,93.60
2017-07-05T00:15:57.317Z,93.80
2017-07-05T00:18:26.871Z,94.00
2017-07-05T00:21:08.927Z,94.00
2017-07-05T00:23:36.741Z,93.70
2017-07-05T00:26:38.559Z,93.70
2017-07-05T00:29:07.155Z,93.70
2017-07-05T00:31:37.630Z,93.80
2017-07-05T00:34:07.573Z,93.70
2017-07-05T00:36:38.192Z,93.90
2017-07-05T00:39:06.747Z,93.90
2017-07-05T00:41:36.756Z,94.00
2017-07-05T00:44:05.238Z,94.00
2017-07-05T00:46:34.055Z,94.10
2017-07-05T00:49:10.366Z,94.10
2017-07-05T00:51:49.784Z,94.10
2017-07-05T00:56:55.992Z,94.10
2017-07-05T00:59:26.047Z,94.00
2017-07-05T01:01:59.630Z,94.10
2017-07-05T01:04:30.105Z,94.00
2017-07-05T01:07:24.918Z,94.10
2017-07-05T01:09:54.384Z,94.00
2017-07-05T01:12:51.475Z,94.30
2017-07-05T01:15:20.550Z,94.20
2017-07-05T01:17:50.875Z,94.20
2017-07-05T01:20:39.991Z,94.20
2017-07-05T01:23:12.050Z,94.20
2017-07-05T01:28:50.898Z,94.10
2017-07-05T01:31:40.869Z,94.00
2017-07-05T01:37:32.419Z,94.30
2017-07-05T01:40:29.862Z,94.80
2017-07-05T01:43:03.804Z,94.40
2017-07-05T01:54:38.881Z,94.40
2017-07-05T01:57:13.012Z,94.60
2017-07-05T01:59:47.603Z,94.80
2017-07-05T02:02:16.985Z,94.60
2017-07-05T02:04:47.541Z,94.70
2017-07-05T02:07:31.402Z,94.70
2017-07-05T02:12:37.860Z,94.50
2017-07-05T02:15:34.744Z,94.50
2017-07-05T02:50:44.104Z,95.30
2017-07-05T02:53:53.435Z,95.30
2017-07-05T02:56:23.096Z,95.30
2017-07-05T02:59:35.800Z,95.40
2017-07-05T03:05:45.400Z,95.40
2017-07-05T03:21:20.987Z,95.90
2017-07-05T04:14:04.600Z,95.90
2017-07-05T04:19:57.100Z,95.80
2017-07-05T04:26:03.175Z,95.40
2017-07-05T04:28:33.926Z,95.30
2017-07-05T04:31:01.579Z,95.20
2017-07-05T04:33:29.975Z,95.10
2017-07-05T04:35:58.539Z,94.80
2017-07-05T04:38:26.924Z,93.90
2017-07-05T04:40:54.525Z,93.90
2017-07-05T04:43:22.145Z,93.20
2017-07-05T04:45:49.795Z,92.70
2017-07-05T04:48:17.388Z,92.40
2017-07-05T04:50:45.006Z,92.30
2017-07-05T04:53:12.614Z,92.20
2017-07-05T04:55:41.001Z,92.00
2017-07-05T04:58:09.364Z,91.90
2017-07-05T05:00:37.241Z,91.90
2017-07-05T05:03:05.628Z,91.80
2017-07-05T05:05:33.256Z,91.70
2017-07-05T05:08:00.879Z,91.70
2017-07-05T05:10:28.488Z,92.00
2017-07-05T05:12:56.074Z,92.10
2017-07-05T05:15:23.680Z,92.10
2017-07-05T05:17:51.298Z,92.20
2017-07-05T05:20:18.903Z,92.10
2017-07-05T05:22:46.508Z,91.40
2017-07-05T05:25:14.083Z,91.10
2017-07-05T05:27:41.671Z,90.90
2017-07-05T05:30:10.072Z,84.90
2017-07-05T05:32:37.710Z,84.70
2017-07-05T05:35:05.311Z,79.60
2017-07-05T05:37:32.927Z,75.40
2017-07-05T05:40:00.520Z,71.50
2017-07-05T05:42:28.106Z,68.20
2017-07-05T05:44:56.482Z,63.10
2017-07-05T05:47:24.945Z,60.40
2017-07-05T05:49:52.619Z,60.20
2017-07-05T05:52:20.251Z,58.10
2017-07-05T05:54:47.868Z,57.10
2017-07-05T05:57:16.213Z,55.40
2017-07-05T05:59:43.814Z,55.40
2017-07-05T06:02:11.377Z,54.20
2017-07-05T06:04:38.918Z,53.70
2017-07-05T06:07:06.555Z,52.10
2017-07-05T06:09:34.236Z,51.40
2017-07-05T06:12:01.772Z,50.60
2017-07-05T06:14:29.339Z,49.70
2017-07-05T06:16:56.875Z,49.20
2017-07-05T06:19:26.037Z,48.60
2017-07-05T06:21:55.296Z,48.60
2017-07-05T06:24:23.595Z,50.70
2017-07-05T06:26:51.152Z,50.60
2017-07-05T06:29:18.707Z,50.70
2017-07-05T06:31:46.328Z,51.00
2017-07-05T06:34:13.901Z,49.90
2017-07-05T06:36:41.538Z,48.80
2017-07-05T06:39:09.131Z,49.00
2017-07-05T06:41:36.714Z,47.50
2017-07-05T06:44:04.292Z,45.50
2017-07-05T06:46:32.648Z,45.20
2017-07-05T06:49:00.765Z,45.20
2017-07-05T06:51:28.587Z,45.10
2017-07-05T06:53:56.160Z,44.50
2017-07-05T06:56:23.712Z,44.00
2017-07-05T06:58:51.306Z,44.40
2017-07-05T07:01:19.209Z,44.00
2017-07-05T07:03:46.774Z,43.70
2017-07-05T07:06:14.345Z,43.80
2017-07-05T07:08:41.925Z,44.00
2017-07-05T07:11:10.152Z,43.00
2017-07-05T07:13:37.788Z,43.50
2017-07-05T07:16:05.419Z,42.40
2017-07-05T07:18:32.990Z,43.10
2017-07-05T07:21:00.542Z,42.30
2017-07-05T07:23:28.116Z,39.20
2017-07-05T07:25:55.682Z,39.30
2017-07-05T07:28:23.258Z,40.10
2017-07-05T07:30:51.815Z,39.20
2017-07-05T07:33:19.416Z,39.80
2017-07-05T07:35:47.020Z,40.80
2017-07-05T07:38:14.601Z,41.30
2017-07-05T07:40:42.396Z,41.10
2017-07-05T07:43:10.208Z,40.60
2017-07-05T07:45:37.881Z,41.00
2017-07-05T07:48:05.628Z,40.70
2017-07-05T07:50:33.227Z,39.10
2017-07-05T07:53:00.797Z,39.40
2017-07-05T07:55:29.288Z,38.60
2017-07-05T07:57:59.213Z,38.20
2017-07-05T08:00:26.880Z,38.30
2017-07-05T08:02:55.201Z,35.00
2017-07-05T08:05:22.879Z,35.00
2017-07-05T08:07:50.462Z,35.90
2017-07-05T08:10:18.326Z,33.70
2017-07-05T08:12:45.859Z,33.20
2017-07-05T08:15:13.511Z,33.30
2017-07-05T08:17:41.107Z,33.30
2017-07-05T08:20:08.689Z,33.60
2017-07-05T08:22:37.606Z,32.20
2017-07-05T08:25:05.178Z,29.80
2017-07-05T08:27:32.761Z,30.70
2017-07-05T08:30:00.374Z,30.00
2017-07-05T08:32:27.913Z,30.50
2017-07-05T08:34:55.472Z,32.00
2017-07-05T08:37:23.657Z,29.10
2017-07-05T08:39:51.266Z,31.20
2017-07-05T08:42:18.824Z,30.60
2017-07-05T08:44:46.434Z,30.30
2017-07-05T08:47:14.043Z,31.70
2017-07-05T08:49:41.656Z,29.30
2017-07-05T08:52:09.237Z,29.90
2017-07-05T08:54:36.797Z,31.20
2017-07-05T08:57:04.435Z,29.00
2017-07-05T08:59:33.669Z,27.90
2017-07-05T09:02:02.197Z,27.80
2017-07-05T09:04:29.827Z,28.60
2017-07-05T09:06:58.585Z,27.90
2017-07-05T09:09:26.916Z,28.40
2017-07-05T09:11:54.550Z,28.60
2017-07-05T09:14:22.147Z,27.50
2017-07-05T09:16:49.730Z,28.70
2017-07-05T09:19:17.406Z,27.30
2017-07-05T09:21:45.840Z,27.80
2017-07-05T09:24:13.357Z,29.20
2017-07-05T09:26:40.924Z,29.80
2017-07-05T09:29:08.483Z,28.80
2017-07-05T09:31:36.088Z,27.60
2017-07-05T09:34:03.709Z,27.50
2017-07-05T09:36:31.304Z,28.40
2017-07-05T09:38:58.877Z,26.70
2017-07-05T09:41:27.226Z,27.60
2017-07-05T09:43:54.815Z,27.50
2017-07-05T09:46:23.630Z,27.30
2017-07-05T09:48:52.214Z,27.30
2017-07-05T09:51:19.797Z,27.40
2017-07-05T09:53:47.363Z,27.80
2017-07-05T09:56:14.955Z,29.50
2017-07-05T09:58:43.185Z,31.90
2017-07-05T10:01:10.798Z,33.20
2017-07-05T10:03:38.464Z,34.50
2017-07-05T10:06:06.317Z,33.70
2017-07-05T10:08:33.986Z,34.10
2017-07-05T10:11:01.553Z,31.70
2017-07-05T10:13:29.140Z,32.70
2017-07-05T10:15:56.716Z,29.20
2017-07-05T10:18:24.291Z,31.80
2017-07-05T10:20:52.698Z,29.50
2017-07-05T10:23:38.999Z,29.50
2017-07-05T10:26:06.637Z,28.90
2017-07-05T10:28:34.998Z,28.10
2017-07-05T10:31:02.937Z,28.10
2017-07-05T10:33:30.813Z,27.30
2017-07-05T10:35:58.418Z,27.50
2017-07-05T10:38:27.905Z,26.80
2017-07-05T10:40:55.961Z,28.20
2017-07-05T10:43:23.601Z,29.20
2017-07-05T10:45:51.207Z,28.90
2017-07-05T10:48:19.391Z,29.70
2017-07-05T10:50:47.057Z,29.20
2017-07-05T10:53:14.673Z,28.60
2017-07-05T10:55:42.313Z,29.20
2017-07-05T10:58:10.731Z,26.80
2017-07-05T11:00:38.340Z,27.60
2017-07-05T11:03:05.983Z,28.20
2017-07-05T11:05:33.604Z,26.50
2017-07-05T11:08:01.720Z,28.00
2017-07-05T11:10:29.367Z,26.10
2017-07-05T11:12:57.042Z,24.10
2017-07-05T11:15:24.785Z,25.00
2017-07-05T11:17:53.528Z,26.30
2017-07-05T11:20:21.199Z,26.30
2017-07-05T11:22:48.843Z,26.10
2017-07-05T11:25:16.484Z,27.30
2017-07-05T11:27:44.886Z,27.40
2017-07-05T11:30:12.548Z,27.40
2017-07-05T11:32:41.616Z,26.60
2017-07-05T11:35:09.833Z,26.20
2017-07-05T11:37:37.550Z,26.20
2017-07-05T11:40:06.238Z,25.80
2017-07-05T11:42:33.792Z,24.50
2017-07-05T11:45:01.347Z,25.60
2017-07-05T11:47:28.934Z,26.30
2017-07-05T11:49:57.333Z,25.70
2017-07-05T11:52:26.146Z,27.70
2017-07-05T11:54:55.226Z,26.60
2017-07-05T11:57:22.885Z,26.30
2017-07-05T11:59:52.246Z,26.60
2017-07-05T12:02:20.864Z,26.60
2017-07-05T12:04:49.419Z,27.20
2017-07-05T12:07:17.044Z,25.60
2017-07-05T12:09:45.930Z,26.80
2017-07-05T12:12:13.648Z,26.40
2017-07-05T12:14:41.376Z,26.40
2017-07-05T12:17:09.804Z,25.40
2017-07-05T12:19:38.019Z,25.40
2017-07-05T12:22:06.771Z,26.00
2017-07-05T12:24:34.419Z,26.10
2017-07-05T12:27:02.110Z,28.10
2017-07-05T12:29:30.687Z,27.00
2017-07-05T12:31:58.429Z,25.30
2017-07-05T12:34:28.095Z,25.60
2017-07-05T12:36:55.753Z,25.40
2017-07-05T12:39:23.538Z,24.50
2017-07-05T12:41:53.190Z,25.50
2017-07-05T12:44:22.836Z,24.40
2017-07-05T12:46:53.722Z,24.50
2017-07-05T12:49:21.371Z,24.80
2017-07-05T12:51:48.986Z,26.00
2017-07-05T12:54:16.622Z,26.30
2017-07-05T12:56:44.293Z,26.40
2017-07-05T12:59:12.752Z,25.90
2017-07-05T13:01:42.391Z,25.80
2017-07-05T13:04:10.093Z,25.50
2017-07-05T13:06:37.718Z,25.90
2017-07-05T13:09:05.626Z,25.90
2017-07-05T13:11:33.322Z,26.30
2017-07-05T13:14:00.957Z,26.30
2017-07-05T13:16:28.616Z,26.70
2017-07-05T13:18:56.999Z,26.10
2017-07-05T13:21:24.875Z,26.10
2017-07-05T13:23:53.367Z,27.70
2017-07-05T13:26:21.915Z,27.60
2017-07-05T13:28:50.306Z,26.50
2017-07-05T13:31:18.707Z,26.20
2017-07-05T13:33:47.754Z,26.10
2017-07-05T13:36:16.232Z,25.80
2017-07-05T13:38:43.905Z,26.30
2017-07-05T13:41:11.545Z,27.90
2017-07-05T13:43:39.181Z,26.80
2017-07-05T13:46:07.490Z,27.20
2017-07-05T13:48:35.123Z,27.40
2017-07-05T13:51:03.651Z,27.40
2017-07-05T13:53:31.266Z,27.40
2017-07-05T13:56:09.365Z,26.60
2017-07-05T13:58:37.832Z,27.40
2017-07-05T14:01:05.447Z,27.40
2017-07-05T14:03:33.066Z,25.30
2017-07-05T14:06:00.860Z,26.90
2017-07-05T14:08:28.466Z,27.10
2017-07-05T14:10:56.490Z,27.90
2017-07-05T14:13:24.158Z,26.70
2017-07-05T14:15:51.772Z,27.00
2017-07-05T14:18:19.386Z,25.90
2017-07-05T14:20:46.996Z,25.10
2017-07-05T14:23:14.638Z,26.80
2017-07-05T14:25:43.028Z,28.10
2017-07-05T14:28:11.474Z,28.20
2017-07-05T14:30:39.140Z,28.20
2017-07-05T14:33:06.795Z,30.70
2017-07-05T14:35:34.415Z,31.00
2017-07-05T14:38:02.080Z,31.10
2017-07-05T14:40:30.488Z,29.60
2017-07-05T14:42:58.200Z,29.40
2017-07-05T14:45:25.990Z,30.00
2017-07-05T14:47:53.645Z,30.70
2017-07-05T14:50:21.290Z,31.10
2017-07-05T14:52:48.930Z,33.70
2017-07-05T14:55:16.594Z,34.40
2017-07-05T14:57:44.218Z,35.10
2017-07-05T15:00:11.855Z,36.50
2017-07-05T15:02:39.500Z,38.10
2017-07-05T15:05:07.115Z,39.00
2017-07-05T15:07:34.710Z,39.30
2017-07-05T15:10:02.369Z,39.60
2017-07-05T15:12:35.029Z,39.50
2017-07-05T15:15:03.432Z,40.30
2017-07-05T15:17:31.074Z,39.90
2017-07-05T15:19:58.719Z,40.20
2017-07-05T15:22:26.379Z,41.20
2017-07-05T15:24:54.012Z,40.30
2017-07-05T15:27:21.608Z,41.30
2017-07-05T15:29:49.230Z,41.00
2017-07-05T15:32:19.642Z,41.10
2017-07-05T15:34:48.271Z,42.40
2017-07-05T15:37:15.900Z,42.20
2017-07-05T15:39:44.283Z,40.50
2017-07-05T15:42:12.838Z,40.50
2017-07-05T15:44:41.512Z,37.10
2017-07-05T15:47:09.150Z,34.60
2017-07-05T15:49:36.798Z,31.00
2017-07-05T15:52:05.193Z,31.00
2017-07-05T15:54:33.563Z,30.50
2017-07-05T15:57:01.957Z,31.40
2017-07-05T15:59:30.372Z,31.10
2017-07-05T16:01:58.067Z,31.10
2017-07-05T16:04:25.729Z,30.20
2017-07-05T16:06:53.356Z,29.80
2017-07-05T16:09:21.063Z,29.60
2017-07-05T16:11:48.692Z,28.20
2017-07-05T16:14:16.359Z,30.00
2017-07-05T16:16:43.986Z,28.70
2017-07-05T16:19:11.913Z,29.20
2017-07-05T16:21:39.588Z,29.60
2017-07-05T16:24:07.182Z,31.40
2017-07-05T16:26:34.812Z,32.20
2017-07-05T16:29:02.485Z,34.10
2017-07-05T16:31:30.082Z,34.80
2017-07-05T16:33:57.708Z,36.20
2017-07-05T16:36:25.412Z,37.00
2017-07-05T16:38:53.063Z,38.90
2017-07-05T16:41:20.713Z,40.80
2017-07-05T16:43:48.348Z,41.90
2017-07-05T16:46:17.294Z,42.30
2017-07-05T16:48:44.967Z,42.20
2017-07-05T16:51:13.794Z,42.60
2017-07-05T16:53:41.504Z,43.90
2017-07-05T16:56:09.111Z,44.10
2017-07-05T16:58:36.976Z,44.40
2017-07-05T17:01:04.585Z,44.60
2017-07-05T17:03:32.209Z,45.70
2017-07-05T17:05:59.850Z,45.70
2017-07-05T17:08:27.465Z,45.90
2017-07-05T17:10:55.844Z,48.80
2017-07-05T17:13:24.329Z,48.90
2017-07-05T17:15:52.747Z,49.50
2017-07-05T17:18:20.405Z,49.50
2017-07-05T17:20:48.081Z,51.00
2017-07-05T17:23:15.708Z,53.00
2017-07-05T17:25:43.337Z,54.50
2017-07-05T17:28:10.994Z,55.10
2017-07-05T17:30:38.610Z,55.40
2017-07-05T17:33:06.237Z,51.60
2017-07-05T17:35:33.841Z,52.40
2017-07-05T17:38:01.479Z,52.20
2017-07-05T17:40:29.055Z,52.80
2017-07-05T17:42:56.737Z,51.50
2017-07-05T17:45:25.138Z,51.40
2017-07-05T17:47:52.764Z,51.30
2017-07-05T17:50:20.415Z,52.60
2017-07-05T17:52:48.040Z,54.40
2017-07-05T17:55:15.729Z,55.20
2017-07-05T17:57:43.414Z,55.70
2017-07-05T18:00:11.408Z,56.60
2017-07-05T18:02:39.091Z,56.40
2017-07-05T18:05:06.854Z,56.20
2017-07-05T18:10:41.902Z,58.40
2017-07-05T18:13:32.045Z,60.60
2017-07-05T18:16:01.599Z,61.40
2017-07-05T18:18:30.277Z,61.90
2017-07-05T18:20:58.785Z,62.60
2017-07-05T18:23:31.873Z,62.40
2017-07-05T18:26:05.188Z,63.30
2017-07-05T18:28:34.695Z,63.20
2017-07-05T18:31:10.493Z,64.20
2017-07-05T18:33:56.597Z,65.00
2017-07-05T18:39:33.464Z,66.40
2017-07-05T18:42:06.546Z,67.10
2017-07-05T18:44:38.346Z,67.90
2017-07-05T18:47:07.633Z,68.00
2017-07-05T18:49:36.981Z,67.80
2017-07-05T18:52:04.752Z,68.10
2017-07-05T18:54:41.504Z,69.00
2017-07-05T18:57:09.356Z,68.80
2017-07-05T18:59:38.542Z,71.40
2017-07-05T19:02:08.287Z,71.50
2017-07-05T19:04:39.827Z,71.20
2017-07-05T19:07:11.575Z,72.40
2017-07-05T19:09:41.551Z,73.30
2017-07-05T19:12:11.449Z,74.10
2017-07-05T19:14:40.890Z,76.10
2017-07-05T19:17:08.789Z,76.10
2017-07-05T19:19:37.780Z,77.90
2017-07-05T19:22:11.398Z,78.30
2017-07-05T19:24:39.167Z,78.50
2017-07-05T19:27:08.272Z,79.10
2017-07-05T19:29:37.142Z,79.10
2017-07-05T19:32:10.257Z,79.60
2017-07-05T19:34:40.441Z,80.30
2017-07-05T19:37:08.885Z,81.30
2017-07-05T19:39:37.801Z,81.60
2017-07-05T19:42:09.714Z,82.00
2017-07-05T19:44:38.679Z,83.90
2017-07-05T19:47:06.464Z,83.80
2017-07-05T19:49:34.132Z,83.20
2017-07-05T19:52:03.551Z,83.80
2017-07-05T19:54:33.077Z,82.60
2017-07-05T19:57:03.322Z,82.80
2017-07-05T19:59:31.254Z,81.50
2017-07-05T20:01:59.014Z,81.80
2017-07-05T20:04:27.431Z,82.60
2017-07-05T20:06:55.106Z,82.30
2017-07-05T20:09:22.782Z,82.40
2017-07-05T20:11:50.450Z,82.40
2017-07-05T20:14:18.857Z,82.10
2017-07-05T20:16:47.265Z,82.00
2017-07-05T20:19:14.938Z,81.80
2017-07-05T20:21:42.770Z,82.30
2017-07-05T20:24:10.422Z,81.80
2017-07-05T20:26:38.874Z,82.90
2017-07-05T20:29:07.637Z,82.90
2017-07-05T20:31:35.318Z,83.60
2017-07-05T20:34:03.186Z,84.10
2017-07-05T20:36:30.777Z,82.80
2017-07-05T20:38:59.493Z,82.50
2017-07-05T20:41:27.091Z,82.50
2017-07-05T20:43:54.732Z,83.30
2017-07-05T20:46:25.097Z,84.00
2017-07-05T20:48:53.191Z,84.00
2017-07-05T20:51:20.793Z,84.00
2017-07-05T20:53:48.466Z,84.50
2017-07-05T20:56:16.510Z,84.60
2017-07-05T20:58:44.977Z,86.80
2017-07-05T21:01:14.212Z,86.80
2017-07-05T21:03:41.874Z,86.30
2017-07-05T21:06:11.563Z,86.60
2017-07-05T21:08:39.235Z,86.60
2017-07-05T21:11:07.219Z,87.20
2017-07-05T21:13:34.930Z,87.70
2017-07-05T21:16:03.514Z,87.90
2017-07-05T21:18:32.046Z,88.10
2017-07-05T21:20:59.825Z,88.90
2017-07-05T21:23:28.342Z,89.60
2017-07-05T21:26:07.387Z,90.40
2017-07-05T21:28:35.020Z,90.10
2017-07-05T21:31:13.327Z,90.30
2017-07-05T21:33:49.200Z,90.50
2017-07-05T21:36:17.634Z,90.50
2017-07-05T21:38:47.839Z,90.40
2017-07-05T21:41:18.806Z,90.50
2017-07-05T21:43:46.659Z,90.60
2017-07-05T21:46:15.012Z,90.70
2017-07-05T21:48:42.674Z,90.70
2017-07-05T21:51:11.033Z,91.20
2017-07-05T21:53:38.660Z,91.10
2017-07-05T21:56:07.165Z,91.10
2017-07-05T21:58:34.931Z,91.20
2017-07-05T22:01:03.533Z,91.30
2017-07-05T22:03:31.194Z,91.40
2017-07-05T22:05:58.994Z,91.30
2017-07-05T22:08:27.399Z,91.40
2017-07-05T22:10:55.124Z,91.40
2017-07-05T22:13:22.737Z,91.60
2017-07-05T22:15:50.651Z,91.90
2017-07-05T22:18:19.190Z,92.20
2017-07-05T22:20:47.850Z,92.20
2017-07-05T22:23:16.562Z,92.30
2017-07-05T22:25:44.980Z,92.40
2017-07-05T22:28:12.579Z,92.40
2017-07-05T22:30:40.213Z,92.30
2017-07-05T22:33:07.822Z,92.40
2017-07-05T22:35:35.518Z,92.50
2017-07-05T22:38:03.086Z,92.50
2017-07-05T22:40:30.768Z,92.60
2017-07-05T22:42:58.383Z,92.60
2017-07-05T22:45:25.980Z,92.60
2017-07-05T22:47:53.598Z,92.40
2017-07-05T22:50:22.429Z,92.60
2017-07-05T22:52:50.021Z,92.50
2017-07-05T22:55:17.647Z,92.60
2017-07-05T22:57:45.231Z,92.90
2017-07-05T23:00:12.870Z,93.00
2017-07-05T23:02:40.494Z,92.90
2017-07-05T23:05:08.157Z,93.00
2017-07-05T23:07:36.462Z,92.90
2017-07-05T23:10:04.097Z,92.90
2017-07-05T23:12:31.726Z,92.80
2017-07-05T23:14:59.334Z,92.80
2017-07-05T23:17:26.971Z,92.90
2017-07-05T23:19:54.593Z,92.90
2017-07-05T23:22:22.206Z,93.10
2017-07-05T23:24:49.881Z,93.00
2017-07-05T23:27:17.467Z,93.40
2017-07-05T23:29:45.075Z,93.10
2017-07-05T23:32:12.688Z,93.00
2017-07-05T23:34:40.290Z,92.90
2017-07-05T23:37:07.870Z,92.90
2017-07-05T23:39:35.514Z,93.10
2017-07-05T23:42:03.150Z,93.30
2017-07-05T23:44:30.820Z,93.30
2017-07-05T23:46:59.488Z,93.40
2017-07-05T23:49:27.418Z,93.50
2017-07-05T23:51:55.015Z,93.70
2017-07-05T23:54:23.390Z,93.70
2017-07-05T23:56:51.046Z,93.70
2017-07-05T23:59:18.639Z,93.80
